Time;durP1;ratioP1;P1;durP2;ratioP2;P2;SDS_P1;SDS_P2;PMS_P1;PMS_P2;Temp;Humidity;BMP_temperature;BMP_pressure;BME280_temperature;BME280_humidity;BME280_pressure;Samples;Min_cycle;Max_cycle;Signal;HPM_P1;HPM_P2
2022/09/10 00:01:19;;;;;;;;;;;;;;;;;;5047628;28;19905;-50
2022/09/10 00:03:47;;;;;;;;;;;;;;;;;;5046932;28;19908;-52
2022/09/10 00:06:13;;;;;;;;;;;;;;;;;;5048145;28;20563;-49
2022/09/10 00:08:39;;;;;;;;;;;;;;;;;;5047483;28;19904;-50
2022/09/10 00:11:05;;;;;;;;;;;;;;;;;;5047396;28;19915;-51
2022/09/10 00:13:39;;;;;;;;;;;;;;;;;;5057918;28;19917;-48
2022/09/10 00:16:05;;;;;;;;;;;;;;;;;;5064259;28;20466;-48
2022/09/10 00:18:31;;;;;;;;;;;;;;;;;;5063921;28;19996;-51
2022/09/10 00:20:57;;;;;;;;;;;;;;;;;;5063799;28;19912;-50
2022/09/10 00:23:24;;;;;;;;;;;;;;;;;;5060949;28;19963;-51
2022/09/10 00:25:52;;;;;;;;;;;;;;;;;;5055646;28;19963;-52
2022/09/10 00:28:18;;;;;;;;;;;;;;;;;;5064072;28;20510;-48
2022/09/10 00:30:44;;;;;;;;;;;;;;;;;;5064235;28;20011;-49
2022/09/10 00:33:10;;;;;;;;;;;;;;;;;;5063784;28;20015;-51
2022/09/10 00:35:36;;;;;;;;;;;;;;;;;;5056966;28;20031;-50
2022/09/10 00:38:02;;;;;;;;;;;;;;;;;;5063659;28;19916;-51
2022/09/10 00:40:28;;;;;;;;;;;;;;;;;;5063740;28;19974;-49
2022/09/10 00:42:54;;;;;;;;;;;;;;;;;;5063495;28;19919;-48
2022/09/10 00:45:20;;;;;;;;;;;;;;;;;;5060179;28;19947;-48
2022/09/10 00:47:46;;;;;;;;;;;;;;;;;;5063222;28;19932;-51
2022/09/10 00:50:12;;;;;;;;;;;;;;;;;;5064189;28;19935;-50
2022/09/10 00:52:38;;;;;;;;;;;;;;;;;;5058626;28;20007;-51
2022/09/10 00:55:04;;;;;;;;;;;;;;;;;;5061056;28;20631;-51
2022/09/10 00:57:30;;;;;;;;;;;;;;;;;;5063220;28;19975;-50
2022/09/10 00:59:56;;;;;;;;;;;;;;;;;;5063100;28;19909;-50
2022/09/10 01:02:22;;;;;;;;;;;;;;;;;;5063089;28;20028;-51
2022/09/10 01:04:48;;;;;;;;;;;;;;;;;;5057253;28;19971;-50
2022/09/10 01:07:14;;;;;;;;;;;;;;;;;;5058110;28;19916;-51
2022/09/10 01:09:40;;;;;;;;;;;;;;;;;;5062973;28;19913;-49
2022/09/10 01:12:07;;;;;;;;;;;;;;;;;;5067892;28;20680;-50
2022/09/10 01:14:34;;;;;;;;;;;;;;;;;;5072114;28;19908;-50
2022/09/10 01:17:02;;;;;;;;;;;;;;;;;;5082903;28;19913;-50
2022/09/10 01:19:28;;;;;;;;;;;;;;;;;;5073802;28;19938;-51
2022/09/10 01:21:54;;;;;;;;;;;;;;;;;;5063005;28;20779;-51
2022/09/10 01:24:21;;;;;;;;;;;;;;;;;;5052715;28;19913;-49
2022/09/10 01:26:48;;;;;;;;;;;;;;;;;;5067588;28;19912;-51
2022/09/10 01:29:14;;;;;;;;;;;;;;;;;;5069487;28;20018;-50
2022/09/10 01:31:40;;;;;;;;;;;;;;;;;;5068872;28;19912;-51
2022/09/10 01:34:06;;;;;;;;;;;;;;;;;;5067377;28;20011;-51
2022/09/10 01:36:32;;;;;;;;;;;;;;;;;;5066695;28;20008;-51
2022/09/10 01:38:58;;;;;;;;;;;;;;;;;;5069334;28;19912;-50
2022/09/10 01:41:24;;;;;;;;;;;;;;;;;;5069926;28;20277;-51
2022/09/10 01:43:50;;;;;;;;;;;;;;;;;;5068798;28;19920;-52
2022/09/10 01:46:18;;;;;;;;;;;;;;;;;;5053620;28;20396;-49
2022/09/10 01:48:44;;;;;;;;;;;;;;;;;;5048831;28;19916;-51
2022/09/10 01:51:10;;;;;;;;;;;;;;;;;;5048983;28;19938;-50
2022/09/10 01:53:38;;;;;;;;;;;;;;;;;;5045886;28;20015;-48
2022/09/10 01:56:04;;;;;;;;;;;;;;;;;;5048059;28;20004;-49
2022/09/10 01:58:29;;;;;;;;;;;;;;;;;;5047992;28;20004;-51
2022/09/10 02:00:56;;;;;;;;;;;;;;;;;;5048190;28;19982;-47
2022/09/10 02:03:22;;;;;;;;;;;;;;;;;;5049452;28;20003;-48
2022/09/10 02:05:48;;;;;;;;;;;;;;;;;;5047308;28;19936;-50
2022/09/10 02:08:15;;;;;;;;;;;;;;;;;;5047670;28;20406;-51
2022/09/10 02:10:41;;;;;;;;;;;;;;;;;;5047573;28;20087;-50
2022/09/10 02:13:07;;;;;;;;;;;;;;;;;;5045988;28;19928;-49
2022/09/10 02:15:33;;;;;;;;;;;;;;;;;;5068383;28;20006;-51
2022/09/10 02:18:00;;;;;;;;;;;;;;;;;;5067948;28;19915;-47
2022/09/10 02:20:26;;;;;;;;;;;;;;;;;;5069062;28;19936;-51
2022/09/10 02:22:52;;;;;;;;;;;;;;;;;;5064218;28;20543;-48
2022/09/10 02:25:18;;;;;;;;;;;;;;;;;;5028639;28;20500;-48
2022/09/10 02:27:44;;;;;;;;;;;;;;;;;;5028005;28;19916;-47
2022/09/10 02:30:10;;;;;;;;;;;;;;;;;;5028539;28;19913;-49
2022/09/10 02:32:36;;;;;;;;;;;;;;;;;;5027723;28;19970;-51
2022/09/10 02:35:02;;;;;;;;;;;;;;;;;;5062572;28;19962;-50
2022/09/10 02:37:28;;;;;;;;;;;;;;;;;;5067908;28;19912;-50
2022/09/10 02:39:54;;;;;;;;;;;;;;;;;;5068446;28;19915;-48
2022/09/10 02:42:21;;;;;;;;;;;;;;;;;;5063662;28;19916;-50
2022/09/10 02:44:47;;;;;;;;;;;;;;;;;;5065084;28;19962;-50
2022/09/10 02:47:13;;;;;;;;;;;;;;;;;;5067531;28;19935;-50
2022/09/10 02:49:39;;;;;;;;;;;;;;;;;;5067511;28;19909;-47
2022/09/10 02:52:05;;;;;;;;;;;;;;;;;;5067803;28;19951;-48
2022/09/10 02:54:31;;;;;;;;;;;;;;;;;;5065382;28;19917;-49
2022/09/10 02:56:57;;;;;;;;;;;;;;;;;;5057756;28;19916;-47
2022/09/10 02:59:23;;;;;;;;;;;;;;;;;;5047832;28;19962;-48
2022/09/10 03:01:49;;;;;;;;;;;;;;;;;;5047209;28;19915;-50
2022/09/10 03:04:15;;;;;;;;;;;;;;;;;;5047324;28;20304;-47
2022/09/10 03:06:45;;;;;;;;;;;;;;;;;;5045423;28;19954;-48
2022/09/10 03:09:11;;;;;;;;;;;;;;;;;;5047546;28;19913;-48
2022/09/10 03:11:38;;;;;;;;;;;;;;;;;;5047073;28;19928;-51
2022/09/10 03:14:04;;;;;;;;;;;;;;;;;;5046675;28;20279;-51
2022/09/10 03:16:30;;;;;;;;;;;;;;;;;;5047307;28;19912;-50
2022/09/10 03:18:56;;;;;;;;;;;;;;;;;;5045040;28;19913;-50
2022/09/10 03:21:23;;;;;;;;;;;;;;;;;;5047328;28;19909;-46
2022/09/10 03:23:49;;;;;;;;;;;;;;;;;;5046991;28;19909;-47
2022/09/10 03:26:15;;;;;;;;;;;;;;;;;;5054553;28;19919;-47
2022/09/10 03:28:42;;;;;;;;;;;;;;;;;;5066924;28;20283;-48
2022/09/10 03:31:08;;;;;;;;;;;;;;;;;;5067061;28;19912;-50
2022/09/10 03:33:34;;;;;;;;;;;;;;;;;;5066986;28;19912;-47
2022/09/10 03:36:01;;;;;;;;;;;;;;;;;;5063857;28;19912;-49
2022/09/10 03:38:27;;;;;;;;;;;;;;;;;;5067568;28;19995;-49
2022/09/10 03:40:53;;;;;;;;;;;;;;;;;;5066767;28;19944;-50
2022/09/10 03:43:21;;;;;;;;;;;;;;;;;;5063598;28;19960;-50
2022/09/10 03:45:48;;;;;;;;;;;;;;;;;;5057277;28;19930;-51
2022/09/10 03:48:14;;;;;;;;;;;;;;;;;;5046572;28;19913;-46
2022/09/10 03:50:41;;;;;;;;;;;;;;;;;;5046778;28;19940;-50
2022/09/10 03:53:08;;;;;;;;;;;;;;;;;;5046955;28;19916;-47
2022/09/10 03:55:34;;;;;;;;;;;;;;;;;;5048903;28;19917;-50
2022/09/10 03:58:00;;;;;;;;;;;;;;;;;;5066727;28;19912;-49
2022/09/10 04:00:26;;;;;;;;;;;;;;;;;;5067060;28;20635;-49
2022/09/10 04:02:52;;;;;;;;;;;;;;;;;;5045920;28;19982;-49
2022/09/10 04:05:18;;;;;;;;;;;;;;;;;;5046752;28;20390;-50
2022/09/10 04:07:45;;;;;;;;;;;;;;;;;;5046222;28;19913;-50
2022/09/10 04:10:12;;;;;;;;;;;;;;;;;;5046645;28;20343;-47
2022/09/10 04:12:38;;;;;;;;;;;;;;;;;;5050614;28;19917;-50
2022/09/10 04:15:04;;;;;;;;;;;;;;;;;;5066645;28;19959;-48
2022/09/10 04:17:30;;;;;;;;;;;;;;;;;;5066599;28;19916;-46
2022/09/10 04:19:56;;;;;;;;;;;;;;;;;;5066962;28;19984;-48
2022/09/10 04:22:22;;;;;;;;;;;;;;;;;;5063903;28;20004;-48
2022/09/10 04:24:47;;;;;;;;;;;;;;;;;;5064111;28;19943;-46
2022/09/10 04:27:14;;;;;;;;;;;;;;;;;;5066447;28;19913;-50
2022/09/10 04:29:41;;;;;;;;;;;;;;;;;;5066242;28;19956;-49
2022/09/10 04:32:07;;;;;;;;;;;;;;;;;;5063415;28;19966;-47
2022/09/10 04:34:33;;;;;;;;;;;;;;;;;;5066373;28;19917;-50
2022/09/10 04:37:00;;;;;;;;;;;;;;;;;;5066248;28;19939;-48
2022/09/10 04:39:26;;;;;;;;;;;;;;;;;;5067096;28;20483;-50
2022/09/10 04:41:52;;;;;;;;;;;;;;;;;;5058820;28;19913;-51
2022/09/10 04:44:18;;;;;;;;;;;;;;;;;;5046169;28;20696;-47
2022/09/10 04:46:44;;;;;;;;;;;;;;;;;;5046039;28;19905;-47
2022/09/10 04:49:10;;;;;;;;;;;;;;;;;;5046400;28;19959;-50
2022/09/10 04:51:36;;;;;;;;;;;;;;;;;;5057646;28;19921;-50
2022/09/10 04:54:02;;;;;;;;;;;;;;;;;;5066137;28;19909;-47
2022/09/10 04:56:28;;;;;;;;;;;;;;;;;;5066282;28;19946;-48
2022/09/10 04:58:54;;;;;;;;;;;;;;;;;;5067788;28;19912;-47
2022/09/10 05:01:20;;;;;;;;;;;;;;;;;;5069869;28;20376;-46
2022/09/10 05:03:46;;;;;;;;;;;;;;;;;;5061948;28;19918;-51
2022/09/10 05:06:12;;;;;;;;;;;;;;;;;;5069915;28;19915;-50
2022/09/10 05:08:38;;;;;;;;;;;;;;;;;;5069605;28;19992;-49
2022/09/10 05:11:04;;;;;;;;;;;;;;;;;;5069609;28;19912;-49
2022/09/10 05:13:30;;;;;;;;;;;;;;;;;;5048051;28;19916;-50
2022/09/10 05:15:57;;;;;;;;;;;;;;;;;;5069198;28;19908;-48
2022/09/10 05:18:24;;;;;;;;;;;;;;;;;;5052572;28;20346;-48
2022/09/10 05:20:51;;;;;;;;;;;;;;;;;;5048961;28;20323;-48
2022/09/10 05:23:16;;;;;;;;;;;;;;;;;;5047354;28;20020;-48
2022/09/10 05:25:42;;;;;;;;;;;;;;;;;;5049135;28;20335;-46
2022/09/10 05:28:08;;;;;;;;;;;;;;;;;;5031326;28;19912;-50
2022/09/10 05:30:35;;;;;;;;;;;;;;;;;;5049273;28;19919;-48
2022/09/10 05:33:01;;;;;;;;;;;;;;;;;;5049388;28;20416;-48
2022/09/10 05:35:27;;;;;;;;;;;;;;;;;;5047902;28;19927;-48
2022/09/10 05:37:55;;;;;;;;;;;;;;;;;;5048717;28;19915;-47
2022/09/10 05:40:21;;;;;;;;;;;;;;;;;;5049114;28;19955;-51
2022/09/10 05:42:47;;;;;;;;;;;;;;;;;;5048971;28;19959;-50
2022/09/10 05:45:13;;;;;;;;;;;;;;;;;;5054231;28;19912;-51
2022/09/10 05:47:39;;;;;;;;;;;;;;;;;;5048922;28;20685;-51
2022/09/10 05:50:05;;;;;;;;;;;;;;;;;;5048198;28;19944;-51
2022/09/10 05:52:31;;;;;;;;;;;;;;;;;;5068429;28;19947;-51
2022/09/10 05:54:57;;;;;;;;;;;;;;;;;;5057650;28;19917;-48
2022/09/10 05:57:23;;;;;;;;;;;;;;;;;;5048924;28;19988;-50
2022/09/10 05:59:50;;;;;;;;;;;;;;;;;;5048208;28;20775;-51
2022/09/10 06:02:16;;;;;;;;;;;;;;;;;;5048810;28;19963;-51
2022/09/10 06:04:42;;;;;;;;;;;;;;;;;;5047889;28;19912;-48
2022/09/10 06:07:08;;;;;;;;;;;;;;;;;;5049755;28;19917;-52
2022/09/10 06:09:33;;;;;;;;;;;;;;;;;;5046694;28;19916;-49
2022/09/10 06:11:59;;;;;;;;;;;;;;;;;;5040587;28;19963;-52
2022/09/10 06:14:25;;;;;;;;;;;;;;;;;;5049140;28;20054;-49
2022/09/10 06:16:53;;;;;;;;;;;;;;;;;;5048417;28;20371;-52
2022/09/10 06:19:19;;;;;;;;;;;;;;;;;;5048089;28;20371;-52
2022/09/10 06:21:48;;;;;;;;;;;;;;;;;;5046396;28;19916;-48
2022/09/10 06:24:14;;;;;;;;;;;;;;;;;;5046098;28;19913;-50
2022/09/10 06:26:40;;;;;;;;;;;;;;;;;;5047407;28;20285;-50
2022/09/10 06:29:06;;;;;;;;;;;;;;;;;;5046965;28;19909;-50
2022/09/10 06:31:33;;;;;;;;;;;;;;;;;;5043583;28;20070;-50
2022/09/10 06:33:59;;;;;;;;;;;;;;;;;;5043936;28;20447;-52
2022/09/10 06:36:27;;;;;;;;;;;;;;;;;;5047582;28;19917;-51
2022/09/10 06:38:56;;;;;;;;;;;;;;;;;;5047834;28;19909;-50
2022/09/10 06:41:23;;;;;;;;;;;;;;;;;;5048578;28;19994;-51
2022/09/10 06:43:49;;;;;;;;;;;;;;;;;;5067547;28;19915;-53
2022/09/10 06:46:15;;;;;;;;;;;;;;;;;;5046796;28;20544;-52
2022/09/10 06:48:41;;;;;;;;;;;;;;;;;;5061317;28;20245;-50
2022/09/10 06:51:07;;;;;;;;;;;;;;;;;;5063467;28;19909;-50
2022/09/10 06:53:33;;;;;;;;;;;;;;;;;;5047878;28;20295;-50
2022/09/10 06:55:59;;;;;;;;;;;;;;;;;;5048009;28;19999;-52
2022/09/10 06:58:25;;;;;;;;;;;;;;;;;;5047894;28;19935;-50
2022/09/10 07:00:52;;;;;;;;;;;;;;;;;;5046699;28;19963;-49
2022/09/10 07:03:18;;;;;;;;;;;;;;;;;;5062298;28;19923;-51
2022/09/10 07:05:44;;;;;;;;;;;;;;;;;;5065655;28;19908;-49
2022/09/10 07:08:14;;;;;;;;;;;;;;;;;;5065835;28;19912;-50
2022/09/10 07:10:40;;;;;;;;;;;;;;;;;;5055219;28;20307;-52
2022/09/10 07:13:07;;;;;;;;;;;;;;;;;;5045782;28;19924;-51
2022/09/10 07:15:33;;;;;;;;;;;;;;;;;;5043976;28;19913;-50
2022/09/10 07:17:59;;;;;;;;;;;;;;;;;;5047667;28;19919;-52
2022/09/10 07:20:27;;;;;;;;;;;;;;;;;;5058106;28;19920;-52
2022/09/10 07:22:54;;;;;;;;;;;;;;;;;;5065416;28;19962;-51
2022/09/10 07:25:19;;;;;;;;;;;;;;;;;;5065738;28;20366;-50
2022/09/10 07:27:45;;;;;;;;;;;;;;;;;;5051463;28;19917;-51
2022/09/10 07:30:11;;;;;;;;;;;;;;;;;;5045766;28;19963;-49
2022/09/10 07:32:37;;;;;;;;;;;;;;;;;;5045370;28;20307;-52
2022/09/10 07:35:06;;;;;;;;;;;;;;;;;;5045830;28;19916;-49
2022/09/10 07:37:32;;;;;;;;;;;;;;;;;;5043585;28;19920;-51
2022/09/10 07:39:59;;;;;;;;;;;;;;;;;;5046096;28;19913;-51
2022/09/10 07:42:24;;;;;;;;;;;;;;;;;;5045241;28;20000;-50
2022/09/10 07:44:50;;;;;;;;;;;;;;;;;;5044980;28;20050;-53
2022/09/10 07:47:16;;;;;;;;;;;;;;;;;;5043936;28;19908;-49
2022/09/10 07:49:43;;;;;;;;;;;;;;;;;;5045202;28;19924;-50
2022/09/10 07:52:11;;;;;;;;;;;;;;;;;;5045333;28;19995;-49
2022/09/10 07:54:36;;;;;;;;;;;;;;;;;;5043283;28;20391;-52
2022/09/10 07:57:04;;;;;;;;;;;;;;;;;;5050551;28;19924;-51
2022/09/10 07:59:29;;;;;;;;;;;;;;;;;;5043729;28;19917;-48
2022/09/10 08:01:55;;;;;;;;;;;;;;;;;;5043402;28;20003;-52
2022/09/10 08:04:22;;;;;;;;;;;;;;;;;;5044938;28;20444;-50
2022/09/10 08:06:48;;;;;;;;;;;;;;;;;;5046447;28;19920;-50
2022/09/10 08:09:15;;;;;;;;;;;;;;;;;;5046673;28;19908;-51
2022/09/10 08:11:40;;;;;;;;;;;;;;;;;;5044894;28;20376;-48
2022/09/10 08:14:06;;;;;;;;;;;;;;;;;;5033596;28;19913;-52
2022/09/10 08:16:35;;;;;;;;;;;;;;;;;;5035639;28;19915;-45
2022/09/10 08:19:01;;;;;;;;;;;;;;;;;;5039278;28;20603;-48
2022/09/10 08:21:30;;;;;;;;;;;;;;;;;;5045230;28;19916;-49
2022/09/10 08:23:56;;;;;;;;;;;;;;;;;;5046913;28;19919;-46
2022/09/10 08:26:22;;;;;;;;;;;;;;;;;;5046289;28;20660;-47
2022/09/10 08:28:48;;;;;;;;;;;;;;;;;;5046203;28;19920;-50
2022/09/10 08:31:15;;;;;;;;;;;;;;;;;;5043789;28;19913;-49
2022/09/10 08:33:42;;;;;;;;;;;;;;;;;;5046932;28;19928;-47
2022/09/10 08:36:08;;;;;;;;;;;;;;;;;;5051462;28;19927;-47
2022/09/10 08:38:34;;;;;;;;;;;;;;;;;;5052452;28;19996;-49
2022/09/10 08:41:00;;;;;;;;;;;;;;;;;;5031467;28;19920;-49
2022/09/10 08:43:26;;;;;;;;;;;;;;;;;;5050784;28;19917;-48
2022/09/10 08:45:51;;;;;;;;;;;;;;;;;;5049305;28;19920;-48
2022/09/10 08:48:17;;;;;;;;;;;;;;;;;;5050483;28;20020;-49
2022/09/10 08:50:43;;;;;;;;;;;;;;;;;;5050028;28;19955;-49
2022/09/10 08:53:09;;;;;;;;;;;;;;;;;;5030336;28;19951;-46
2022/09/10 08:55:36;;;;;;;;;;;;;;;;;;5048404;28;19920;-51
2022/09/10 08:58:03;;;;;;;;;;;;;;;;;;5030058;28;20395;-49
2022/09/10 09:00:31;;;;;;;;;;;;;;;;;;5049575;28;20004;-49
2022/09/10 09:02:56;;;;;;;;;;;;;;;;;;5048741;28;20406;-49
2022/09/10 09:05:22;;;;;;;;;;;;;;;;;;5048622;28;19909;-48
2022/09/10 09:07:48;;;;;;;;;;;;;;;;;;5047879;28;19950;-48
2022/09/10 09:10:14;;;;;;;;;;;;;;;;;;5048325;28;19909;-47
2022/09/10 09:12:43;;;;;;;;;;;;;;;;;;5047427;28;19947;-50
2022/09/10 09:15:10;;;;;;;;;;;;;;;;;;5048426;28;20023;-49
2022/09/10 09:17:35;;;;;;;;;;;;;;;;;;5029691;28;19951;-49
2022/09/10 09:20:03;;;;;;;;;;;;;;;;;;5034082;28;19961;-47
2022/09/10 09:22:29;;;;;;;;;;;;;;;;;;5028734;28;19916;-49
2022/09/10 09:24:57;;;;;;;;;;;;;;;;;;5029042;28;19913;-49
2022/09/10 09:27:23;;;;;;;;;;;;;;;;;;5027690;28;19936;-46
2022/09/10 09:29:49;;;;;;;;;;;;;;;;;;5027970;28;19920;-49
2022/09/10 09:32:15;;;;;;;;;;;;;;;;;;5027806;28;19920;-46
2022/09/10 09:34:41;;;;;;;;;;;;;;;;;;5027602;28;19913;-46
2022/09/10 09:37:07;;;;;;;;;;;;;;;;;;5027946;28;19909;-50
2022/09/10 09:39:33;;;;;;;;;;;;;;;;;;5027904;28;19909;-46
2022/09/10 09:42:00;;;;;;;;;;;;;;;;;;5027873;28;20052;-48
2022/09/10 09:44:26;;;;;;;;;;;;;;;;;;5027881;28;19920;-50
2022/09/10 09:46:52;;;;;;;;;;;;;;;;;;5027477;28;20358;-48
2022/09/10 09:49:18;;;;;;;;;;;;;;;;;;5027573;28;20658;-50
2022/09/10 09:51:44;;;;;;;;;;;;;;;;;;5027658;28;20307;-48
2022/09/10 09:54:12;;;;;;;;;;;;;;;;;;5027503;28;19913;-49
2022/09/10 09:56:38;;;;;;;;;;;;;;;;;;5027031;28;19921;-45
2022/09/10 09:59:04;;;;;;;;;;;;;;;;;;5027568;28;19920;-49
2022/09/10 10:01:29;;;;;;;;;;;;;;;;;;5028280;28;19955;-48
2022/09/10 10:03:57;;;;;;;;;;;;;;;;;;5027567;28;19956;-46
2022/09/10 10:06:23;;;;;;;;;;;;;;;;;;5027461;28;19913;-48
2022/09/10 10:08:49;;;;;;;;;;;;;;;;;;5026887;28;19909;-49
2022/09/10 10:11:15;;;;;;;;;;;;;;;;;;5027069;28;20008;-49
2022/09/10 10:13:41;;;;;;;;;;;;;;;;;;5027033;28;20473;-46
2022/09/10 10:16:07;;;;;;;;;;;;;;;;;;5027213;28;20334;-46
2022/09/10 10:18:33;;;;;;;;;;;;;;;;;;5026975;28;19916;-47
2022/09/10 10:20:59;;;;;;;;;;;;;;;;;;5027452;28;20347;-49
2022/09/10 10:23:25;;;;;;;;;;;;;;;;;;5027552;28;19909;-50
2022/09/10 10:25:51;;;;;;;;;;;;;;;;;;5026567;28;20575;-47
2022/09/10 10:28:17;;;;;;;;;;;;;;;;;;5026442;28;19909;-47
2022/09/10 10:30:43;;;;;;;;;;;;;;;;;;5026836;28;19916;-47
2022/09/10 10:33:10;;;;;;;;;;;;;;;;;;5026488;28;20380;-49
2022/09/10 10:35:36;;;;;;;;;;;;;;;;;;5026599;28;20025;-47
2022/09/10 10:38:02;;;;;;;;;;;;;;;;;;5026410;28;20028;-50
2022/09/10 10:40:29;;;;;;;;;;;;;;;;;;5027166;28;19963;-50
2022/09/10 10:42:55;;;;;;;;;;;;;;;;;;5027053;28;20372;-45
2022/09/10 10:45:21;;;;;;;;;;;;;;;;;;5053106;28;19966;-48
2022/09/10 10:47:48;;;;;;;;;;;;;;;;;;5067491;28;19919;-48
2022/09/10 10:50:13;;;;;;;;;;;;;;;;;;5067730;28;19947;-49
2022/09/10 10:52:39;;;;;;;;;;;;;;;;;;5066185;28;19964;-48
2022/09/10 10:55:05;;;;;;;;;;;;;;;;;;5066085;28;19915;-48
2022/09/10 10:57:32;;;;;;;;;;;;;;;;;;5065403;28;19908;-46
2022/09/10 11:00:00;;;;;;;;;;;;;;;;;;5066547;28;19912;-46
2022/09/10 11:02:25;;;;;;;;;;;;;;;;;;5066703;28;19905;-50
2022/09/10 11:04:52;;;;;;;;;;;;;;;;;;5065764;28;19912;-50
2022/09/10 11:07:18;;;;;;;;;;;;;;;;;;5049296;28;19923;-44
2022/09/10 11:09:45;;;;;;;;;;;;;;;;;;5058486;28;19921;-47
2022/09/10 11:12:11;;;;;;;;;;;;;;;;;;5042417;28;20453;-46
2022/09/10 11:14:37;;;;;;;;;;;;;;;;;;5044250;28;20003;-45
2022/09/10 11:17:02;;;;;;;;;;;;;;;;;;5044757;28;19913;-46
2022/09/10 11:19:34;;;;;;;;;;;;;;;;;;5044876;28;20385;-48
2022/09/10 11:22:00;;;;;;;;;;;;;;;;;;5026461;28;20122;-46
2022/09/10 11:24:26;;;;;;;;;;;;;;;;;;5025670;28;20388;-48
2022/09/10 11:26:53;;;;;;;;;;;;;;;;;;5029637;28;19994;-45
2022/09/10 11:29:18;;;;;;;;;;;;;;;;;;5045218;28;19912;-48
2022/09/10 11:31:44;;;;;;;;;;;;;;;;;;5049296;28;19919;-48
2022/09/10 11:34:10;;;;;;;;;;;;;;;;;;5045650;28;19913;-48
2022/09/10 11:36:36;;;;;;;;;;;;;;;;;;5044829;28;19920;-49
2022/09/10 11:39:02;;;;;;;;;;;;;;;;;;5047549;28;19913;-48
2022/09/10 11:41:28;;;;;;;;;;;;;;;;;;5046773;28;19909;-50
2022/09/10 11:43:54;;;;;;;;;;;;;;;;;;5046782;28;19920;-48
2022/09/10 11:46:20;;;;;;;;;;;;;;;;;;5046819;28;19913;-46
2022/09/10 11:48:46;;;;;;;;;;;;;;;;;;5051336;28;19956;-47
2022/09/10 11:51:12;;;;;;;;;;;;;;;;;;5046241;28;19956;-50
2022/09/10 11:53:39;;;;;;;;;;;;;;;;;;5046145;28;19924;-47
2022/09/10 11:56:05;;;;;;;;;;;;;;;;;;5047324;28;20323;-46
2022/09/10 11:58:31;;;;;;;;;;;;;;;;;;5047149;28;19999;-47
2022/09/10 12:00:57;;;;;;;;;;;;;;;;;;5046410;28;20724;-48
2022/09/10 12:03:24;;;;;;;;;;;;;;;;;;5046243;28;19913;-47
2022/09/10 12:05:50;;;;;;;;;;;;;;;;;;5066503;28;20410;-45
2022/09/10 12:08:16;;;;;;;;;;;;;;;;;;5066611;28;19915;-49
2022/09/10 12:10:42;;;;;;;;;;;;;;;;;;5052397;28;19916;-48
2022/09/10 12:13:08;;;;;;;;;;;;;;;;;;5046439;28;20384;-46
2022/09/10 12:15:35;;;;;;;;;;;;;;;;;;5046743;28;19909;-45
2022/09/10 12:18:03;;;;;;;;;;;;;;;;;;5047053;28;19909;-46
2022/09/10 12:20:29;;;;;;;;;;;;;;;;;;5046002;28;20058;-46
2022/09/10 12:22:55;;;;;;;;;;;;;;;;;;5046233;28;19923;-50
2022/09/10 12:25:21;;;;;;;;;;;;;;;;;;5044252;28;19964;-47
2022/09/10 12:27:47;;;;;;;;;;;;;;;;;;5043196;28;19966;-46
2022/09/10 12:30:14;;;;;;;;;;;;;;;;;;5046789;28;19938;-49
2022/09/10 12:32:41;;;;;;;;;;;;;;;;;;5064641;28;19916;-50
2022/09/10 12:35:08;;;;;;;;;;;;;;;;;;5062483;28;19920;-49
2022/09/10 12:37:34;;;;;;;;;;;;;;;;;;5043357;28;19913;-48
2022/09/10 12:40:01;;;;;;;;;;;;;;;;;;5045581;28;19944;-48
2022/09/10 12:42:28;;;;;;;;;;;;;;;;;;5043397;28;19966;-48
2022/09/10 12:44:53;;;;;;;;;;;;;;;;;;5044479;28;19919;-48
2022/09/10 12:47:21;;;;;;;;;;;;;;;;;;5043891;28;19913;-47
2022/09/10 12:49:47;;;;;;;;;;;;;;;;;;5044635;28;19924;-49
2022/09/10 12:52:13;;;;;;;;;;;;;;;;;;5044742;28;19946;-47
2022/09/10 12:54:40;;;;;;;;;;;;;;;;;;5044394;28;19959;-48
2022/09/10 12:57:07;;;;;;;;;;;;;;;;;;5044637;28;20380;-47
2022/09/10 12:59:33;;;;;;;;;;;;;;;;;;5045068;28;20002;-45
2022/09/10 13:01:59;;;;;;;;;;;;;;;;;;5044282;28;19971;-48
2022/09/10 13:04:25;;;;;;;;;;;;;;;;;;5044774;28;19923;-47
2022/09/10 13:06:52;;;;;;;;;;;;;;;;;;5044284;28;20269;-49
2022/09/10 13:09:17;;;;;;;;;;;;;;;;;;5043763;28;19999;-48
2022/09/10 13:11:43;;;;;;;;;;;;;;;;;;5044395;28;20008;-47
2022/09/10 13:14:11;;;;;;;;;;;;;;;;;;5044043;28;19919;-48
2022/09/10 13:16:37;;;;;;;;;;;;;;;;;;5044047;28;19959;-47
2022/09/10 13:19:04;;;;;;;;;;;;;;;;;;5044811;28;19927;-50
2022/09/10 13:21:29;;;;;;;;;;;;;;;;;;5048103;28;19913;-49
2022/09/10 13:23:56;;;;;;;;;;;;;;;;;;5047800;28;19920;-48
2022/09/10 13:26:22;;;;;;;;;;;;;;;;;;5047740;28;19967;-48
2022/09/10 13:28:49;;;;;;;;;;;;;;;;;;5048388;28;19913;-48
2022/09/10 13:31:15;;;;;;;;;;;;;;;;;;5048470;28;19935;-49
2022/09/10 13:33:41;;;;;;;;;;;;;;;;;;5047634;28;19948;-47
2022/09/10 13:36:07;;;;;;;;;;;;;;;;;;5030115;28;19935;-46
2022/09/10 13:38:34;;;;;;;;;;;;;;;;;;5029611;28;20015;-48
2022/09/10 13:41:01;;;;;;;;;;;;;;;;;;5047657;28;19920;-48
2022/09/10 13:43:27;;;;;;;;;;;;;;;;;;5047714;28;20299;-49
2022/09/10 13:45:53;;;;;;;;;;;;;;;;;;5047346;28;19912;-48
2022/09/10 13:48:19;;;;;;;;;;;;;;;;;;5047666;28;19913;-46
2022/09/10 13:50:46;;;;;;;;;;;;;;;;;;5047911;28;19916;-47
2022/09/10 13:53:12;;;;;;;;;;;;;;;;;;5047557;28;19913;-49
2022/09/10 13:55:38;;;;;;;;;;;;;;;;;;5047111;28;19920;-48
2022/09/10 13:58:04;;;;;;;;;;;;;;;;;;5047249;28;19966;-47
2022/09/10 14:00:30;;;;;;;;;;;;;;;;;;5047215;28;19909;-48
2022/09/10 14:02:57;;;;;;;;;;;;;;;;;;5047422;28;19915;-48
2022/09/10 14:05:24;;;;;;;;;;;;;;;;;;5047430;28;19919;-46
2022/09/10 14:07:50;;;;;;;;;;;;;;;;;;5047097;28;19966;-48
2022/09/10 14:10:17;;;;;;;;;;;;;;;;;;5047546;28;20376;-47
2022/09/10 14:12:44;;;;;;;;;;;;;;;;;;5046873;28;19964;-47
2022/09/10 14:15:10;;;;;;;;;;;;;;;;;;5047133;28;19932;-46
2022/09/10 14:17:36;;;;;;;;;;;;;;;;;;5046883;28;19909;-46
2022/09/10 14:20:04;;;;;;;;;;;;;;;;;;5046896;28;19916;-48
2022/09/10 14:22:30;;;;;;;;;;;;;;;;;;5047088;28;19916;-50
2022/09/10 14:24:57;;;;;;;;;;;;;;;;;;5046477;28;19909;-49
2022/09/10 14:27:23;;;;;;;;;;;;;;;;;;5046661;28;19909;-48
2022/09/10 14:29:49;;;;;;;;;;;;;;;;;;5047270;28;19913;-50
2022/09/10 14:32:16;;;;;;;;;;;;;;;;;;5047527;28;19916;-49
2022/09/10 14:34:42;;;;;;;;;;;;;;;;;;5046558;28;19916;-48
2022/09/10 14:37:07;;;;;;;;;;;;;;;;;;5046612;28;20379;-49
2022/09/10 14:39:33;;;;;;;;;;;;;;;;;;5046908;28;20154;-46
2022/09/10 14:42:00;;;;;;;;;;;;;;;;;;5046285;28;19913;-47
2022/09/10 14:44:28;;;;;;;;;;;;;;;;;;5047099;28;19931;-49
2022/09/10 14:46:56;;;;;;;;;;;;;;;;;;5046024;28;20392;-48
2022/09/10 14:49:22;;;;;;;;;;;;;;;;;;5046558;28;19909;-48
2022/09/10 14:51:47;;;;;;;;;;;;;;;;;;5046833;28;19935;-46
2022/09/10 14:54:14;;;;;;;;;;;;;;;;;;5046204;28;20191;-47
2022/09/10 14:56:42;;;;;;;0.47;0.35;;;;;;;;;;5044651;28;20443;-49
2022/09/10 14:59:12;;;;;;;0.45;0.40;;;;;;;;;;5045605;28;20049;-48
2022/09/10 15:01:39;;;;;;;0.73;0.40;;;;;;;;;;5033371;28;20553;-49
2022/09/10 15:04:06;;;;;;;0.40;0.38;;;;;;;;;;5046678;28;20032;-49
2022/09/10 15:06:32;;;;;;;0.40;0.40;;;;;;;;;;5046055;28;20029;-47
2022/09/10 15:08:59;;;;;;;0.30;0.30;;;;;;;;;;5045913;28;20045;-46
2022/09/10 15:11:27;;;;;;;0.30;0.30;;;;;;;;;;5047594;28;20504;-50
2022/09/10 15:13:54;;;;;;;1.02;0.50;;;;;;;;;;5044709;28;20025;-46
2022/09/10 15:16:21;;;;;;;0.45;0.30;;;;;;;;;;5045571;28;20024;-48
2022/09/10 15:18:48;;;;;;;0.40;0.40;;;;;;;;;;5045776;28;20103;-49
2022/09/10 15:21:14;;;;;;;0.75;0.30;;;;;;;;;;5045593;28;20108;-50
2022/09/10 15:23:40;;;;;;;0.68;0.50;;;;;;;;;;5044990;28;20112;-49
2022/09/10 15:26:10;;;;;;;0.30;0.30;;;;;;;;;;5045348;28;20101;-46
2022/09/10 15:28:36;;;;;;;0.30;0.30;;;;;;;;;;5045087;28;20304;-47
2022/09/10 15:31:02;;;;;;;0.60;0.40;;;;;;;;;;5045368;28;20025;-50
2022/09/10 15:33:28;;;;;;;0.60;0.43;;;;;;;;;;5045168;28;20083;-50
2022/09/10 15:35:54;;;;;;;0.85;0.40;;;;;;;;;;5045082;28;20025;-51
2022/09/10 15:38:20;;;;;;;0.38;0.38;;;;;;;;;;5044385;28;20040;-49
2022/09/10 15:40:48;;;;;;;0.50;0.50;;;;;;;;;;5046532;28;20075;-49
2022/09/10 15:43:18;;;;;;;0.88;0.50;;;;;;;;;;5046650;28;20602;-49
2022/09/10 15:45:45;;;;;;;0.60;0.40;;;;;;;;;;5046193;28;20105;-50
2022/09/10 15:48:11;;;;;;;2.53;0.50;;;;;;;;;;5046446;28;20024;-50
2022/09/10 15:50:37;;;;;;;0.45;0.35;;;;;;;;;;5046115;28;20032;-50
2022/09/10 15:53:06;;;;;;;0.30;0.30;;;;;;;;;;5045999;28;20044;-49
2022/09/10 15:55:33;;;;;;;;;;;;;;;;;;5045088;28;20033;-47
2022/09/10 15:57:59;;;;;;;;;;;;;;;;;;5044679;28;19912;-48
2022/09/10 16:00:25;;;;;;;;;;;;;;;;;;5044998;28;19919;-51
2022/09/10 16:02:51;;;;;;;;;;;;;;;;;;5045880;28;19915;-50
2022/09/10 16:05:18;;;;;;;1.00;0.40;;;;;;;;;;5045982;28;20477;-51
2022/09/10 16:07:44;;;;;;;;;;;;;;;;;;5046020;28;20396;-50
2022/09/10 16:10:11;;;;;;;;;;;;;;;;;;5046824;28;20315;-50
2022/09/10 16:12:38;;;;;;;;;;;;;;;;;;5041010;28;19913;-48
2022/09/10 16:15:04;;;;;;;;;;;;;;;;;;5043752;28;20011;-48
2022/09/10 16:17:31;;;;;;;;;;;;;;;;;;5044358;28;20019;-50
2022/09/10 16:19:58;;;;;;;;;;;;;;;;;;5044606;28;19912;-48
2022/09/10 16:22:24;;;;;;;;;;;;;;;;;;5040279;28;20307;-47
2022/09/10 16:24:50;;;;;;;;;;;;;;;;;;5040147;28;19913;-48
2022/09/10 16:27:16;;;;;;;;;;;;;;;;;;5045729;28;19978;-49
2022/09/10 16:29:42;;;;;;;;;;;;;;;;;;5044050;28;19908;-49